createdAt,value
2023-05-22T00:01:09.948Z,5.07
2023-05-22T00:06:12.021Z,5.35
2023-05-22T00:11:13.672Z,5.43
2023-05-22T00:16:15.392Z,5.78
2023-05-22T00:21:17.190Z,5.07
2023-05-22T00:26:18.720Z,5.35
2023-05-22T00:31:20.308Z,5.30
2023-05-22T00:36:22.873Z,5.13
2023-05-22T00:41:24.781Z,4.53
2023-05-22T00:46:26.370Z,4.50
2023-05-22T00:51:28.494Z,5.07
2023-05-22T00:56:30.061Z,5.22
2023-05-22T01:01:33.675Z,4.68
2023-05-22T01:06:35.456Z,4.97
2023-05-22T01:12:07.475Z,4.50
2023-05-22T01:17:37.414Z,5.88
2023-05-22T01:23:16.534Z,5.28
2023-05-22T01:28:40.125Z,5.25
2023-05-22T01:33:51.448Z,5.70
2023-05-22T01:38:54.277Z,5.22
2023-05-22T01:43:56.279Z,4.95
2023-05-22T01:48:58.637Z,5.85
2023-05-22T01:54:22.653Z,5.32
2023-05-22T01:59:39.840Z,6.43
2023-05-22T02:04:45.049Z,5.65
2023-05-22T02:09:51.515Z,4.72
2023-05-22T02:14:53.659Z,4.18
2023-05-22T02:19:55.774Z,5.82
2023-05-22T02:24:57.275Z,5.80
2023-05-22T02:29:58.802Z,5.03
2023-05-22T02:35:00.321Z,4.82
2023-05-22T02:40:02.599Z,5.63
2023-05-22T02:45:05.385Z,6.35
2023-05-22T02:50:07.598Z,5.80
2023-05-22T02:55:09.812Z,5.68
2023-05-22T03:00:11.975Z,6.32
2023-05-22T03:05:17.489Z,5.97
2023-05-22T03:10:19.641Z,5.90
2023-05-22T03:15:21.215Z,5.90
2023-05-22T03:20:24.442Z,6.28
2023-05-22T03:25:26.036Z,5.60
2023-05-22T03:30:27.655Z,5.30
2023-05-22T03:35:44.111Z,5.90
2023-05-22T03:40:46.272Z,5.43
2023-05-22T03:45:48.621Z,6.10
2023-05-22T03:50:51.058Z,6.15
2023-05-22T03:55:53.210Z,5.97
2023-05-22T04:00:58.531Z,5.47
2023-05-22T04:06:01.388Z,4.45
2023-05-22T04:11:03.176Z,5.68
2023-05-22T04:16:05.053Z,5.53
2023-05-22T04:21:09.591Z,6.07
2023-05-22T04:26:11.375Z,7.10
2023-05-22T04:31:13.688Z,6.00
2023-05-22T04:36:15.846Z,6.63
2023-05-22T04:41:18.894Z,6.28
2023-05-22T04:46:21.300Z,7.60
2023-05-22T04:51:23.172Z,8.20
2023-05-22T04:56:35.509Z,7.22
2023-05-22T05:01:40.021Z,6.95
2023-05-22T05:06:43.593Z,8.00
2023-05-22T05:11:48.767Z,7.22
2023-05-22T05:16:52.076Z,8.55
2023-05-22T05:21:54.106Z,7.18
2023-05-22T05:26:57.558Z,8.35
2023-05-22T05:32:00.816Z,7.97
2023-05-22T05:37:22.118Z,7.80
2023-05-22T05:42:26.014Z,8.38
2023-05-22T05:47:30.990Z,8.40
2023-05-22T05:52:33.577Z,7.97
2023-05-22T05:57:40.140Z,7.70
2023-05-22T06:02:47.580Z,4.85
2023-05-22T06:08:04.278Z,8.27
2023-05-22T06:13:06.365Z,8.23
2023-05-22T06:18:08.004Z,7.85
2023-05-22T06:23:11.259Z,8.52
2023-05-22T06:28:13.522Z,9.07
2023-05-22T06:33:15.520Z,8.18
2023-05-22T06:38:17.810Z,9.10
2023-05-22T06:43:19.751Z,8.52
2023-05-22T06:48:28.858Z,8.13
2023-05-22T06:53:43.931Z,7.80
2023-05-22T06:58:50.804Z,7.68
2023-05-22T07:03:54.032Z,8.73
2023-05-22T07:09:11.292Z,5.85
2023-05-22T07:14:13.644Z,7.93
2023-05-22T07:19:16.736Z,8.48
2023-05-22T07:24:18.429Z,7.50
2023-05-22T07:29:21.920Z,6.65
2023-05-22T07:34:32.065Z,6.22
2023-05-22T07:39:34.250Z,5.30
2023-05-22T07:44:36.001Z,4.35
2023-05-22T07:49:37.730Z,4.68
2023-05-22T07:54:39.888Z,3.88
2023-05-22T07:59:44.274Z,4.82
2023-05-22T08:04:46.590Z,4.30
2023-05-22T08:09:48.130Z,4.40
2023-05-22T08:14:49.630Z,3.90
2023-05-22T08:19:51.310Z,4.22
2023-05-22T08:24:52.892Z,3.70
2023-05-22T08:29:54.445Z,4.07
2023-05-22T08:34:55.989Z,3.85
2023-05-22T08:39:57.840Z,3.50
2023-05-22T08:45:01.212Z,3.80
2023-05-22T08:50:04.034Z,3.67
2023-05-22T08:55:07.656Z,4.10
2023-05-22T09:00:10.817Z,3.47
2023-05-22T09:05:12.684Z,3.65
2023-05-22T09:10:14.216Z,3.63
2023-05-22T09:15:16.497Z,3.35
2023-05-22T09:20:18.122Z,3.58
2023-05-22T09:25:21.029Z,3.70
2023-05-22T09:30:22.776Z,3.67
2023-05-22T09:35:30.573Z,3.30
2023-05-22T09:40:34.948Z,3.42
2023-05-22T09:45:37.124Z,3.30
2023-05-22T09:50:42.287Z,3.78
2023-05-22T09:55:50.550Z,3.05
2023-05-22T10:01:00.171Z,3.15
2023-05-22T10:06:04.555Z,3.70
2023-05-22T10:11:06.464Z,3.25
2023-05-22T10:16:09.411Z,2.95
2023-05-22T10:21:13.057Z,3.85
2023-05-22T10:26:19.410Z,3.63
2023-05-22T10:31:42.446Z,3.08
2023-05-22T10:37:22.331Z,3.38
2023-05-22T10:42:24.113Z,3.00
2023-05-22T10:47:26.400Z,2.97
2023-05-22T10:52:27.951Z,2.85
2023-05-22T10:57:35.835Z,3.00
2023-05-22T11:02:43.026Z,2.88
2023-05-22T11:07:47.088Z,2.72
2023-05-22T11:13:03.064Z,2.83
2023-05-22T11:18:05.766Z,3.22
2023-05-22T11:23:08.237Z,2.35
2023-05-22T11:28:11.739Z,3.08
2023-05-22T11:33:13.490Z,3.67
2023-05-22T11:38:15.742Z,2.70
2023-05-22T11:43:29.797Z,3.00
2023-05-22T11:48:31.543Z,2.80
2023-05-22T11:53:34.335Z,2.83
2023-05-22T11:58:35.852Z,3.10
2023-05-22T12:03:37.536Z,2.70
2023-05-22T12:08:39.178Z,2.70
2023-05-22T12:13:41.322Z,2.63
2023-05-22T12:18:42.836Z,2.92
2023-05-22T12:23:51.370Z,2.53
2023-05-22T12:28:54.142Z,2.53
2023-05-22T12:33:56.624Z,2.78
2023-05-22T12:38:58.130Z,2.70
2023-05-22T12:43:59.651Z,2.85
2023-05-22T12:49:02.149Z,2.65
2023-05-22T12:54:03.980Z,2.63
2023-05-22T12:59:05.665Z,2.95
2023-05-22T13:04:07.222Z,2.88
2023-05-22T13:09:08.713Z,2.40
2023-05-22T13:14:10.259Z,2.90
2023-05-22T13:19:11.861Z,3.17
2023-05-22T13:24:13.424Z,2.47
2023-05-22T13:29:15.425Z,3.33
2023-05-22T13:34:16.967Z,2.90
2023-05-22T13:39:24.253Z,2.42
2023-05-22T13:44:26.444Z,2.75
2023-05-22T13:49:28.287Z,2.50
2023-05-22T13:54:30.162Z,2.90
2023-05-22T13:59:33.922Z,2.80
2023-05-22T14:04:35.507Z,2.58
2023-05-22T14:09:37.483Z,2.92
2023-05-22T14:14:38.961Z,2.45
2023-05-22T14:19:40.588Z,2.72
2023-05-22T14:24:42.096Z,3.03
2023-05-22T14:29:43.756Z,3.10
2023-05-22T14:34:45.565Z,3.00
2023-05-22T14:39:47.257Z,2.50
2023-05-22T14:44:48.769Z,2.65
2023-05-22T14:49:50.340Z,2.30
2023-05-22T14:54:51.905Z,2.72
2023-05-22T14:59:53.421Z,3.63
2023-05-22T15:04:54.958Z,2.47
2023-05-22T15:09:58.927Z,2.42
2023-05-22T15:15:00.804Z,2.50
2023-05-22T15:20:02.422Z,2.38
2023-05-22T15:25:07.976Z,3.90
2023-05-22T15:30:10.085Z,2.58
2023-05-22T15:35:13.934Z,2.45
2023-05-22T15:40:18.304Z,2.55
2023-05-22T15:45:20.452Z,2.95
2023-05-22T15:50:22.107Z,2.40
2023-05-22T15:55:23.652Z,3.83
2023-05-22T16:00:26.526Z,2.28
2023-05-22T16:05:31.353Z,2.30
2023-05-22T16:10:33.644Z,2.58
2023-05-22T16:15:37.255Z,3.42
2023-05-22T16:20:39.172Z,2.10
2023-05-22T16:25:40.941Z,2.20
2023-05-22T16:30:43.116Z,5.18
2023-05-22T16:35:46.899Z,2.08
2023-05-22T16:40:48.447Z,2.58
2023-05-22T16:45:51.261Z,2.40
2023-05-22T16:50:53.020Z,2.33
2023-05-22T16:55:54.654Z,2.33
2023-05-22T17:00:56.218Z,2.55
2023-05-22T17:05:57.713Z,2.80
2023-05-22T17:10:59.229Z,2.28
2023-05-22T17:16:00.770Z,2.20
2023-05-22T17:21:04.399Z,2.42
2023-05-22T17:26:06.168Z,2.50
2023-05-22T17:31:08.676Z,2.55
2023-05-22T17:36:10.167Z,2.42
2023-05-22T17:41:11.635Z,2.53
2023-05-22T17:46:13.258Z,2.30
2023-05-22T17:51:14.927Z,2.15
2023-05-22T17:56:16.942Z,2.42
2023-05-22T18:01:19.403Z,2.45
2023-05-22T18:06:23.310Z,2.63
2023-05-22T18:11:26.101Z,2.70
2023-05-22T18:16:27.767Z,2.70
2023-05-22T18:21:29.459Z,2.40
2023-05-22T18:26:30.942Z,2.83
2023-05-22T18:31:32.633Z,2.42
2023-05-22T18:36:34.276Z,2.60
2023-05-22T18:41:36.663Z,2.42
2023-05-22T18:46:38.218Z,2.30
2023-05-22T18:51:39.884Z,2.25
2023-05-22T18:56:41.415Z,2.22
2023-05-22T19:01:43.286Z,2.80
2023-05-22T19:06:45.836Z,2.40
2023-05-22T19:11:47.643Z,2.70
2023-05-22T19:16:49.184Z,2.15
2023-05-22T19:21:51.051Z,2.60
2023-05-22T19:26:52.528Z,1.98
2023-05-22T19:31:54.004Z,2.10
2023-05-22T19:36:57.713Z,2.42
2023-05-22T19:41:59.271Z,2.33
2023-05-22T19:47:00.783Z,2.22
2023-05-22T19:52:04.008Z,2.65
2023-05-22T19:57:05.902Z,2.03
2023-05-22T20:02:07.412Z,2.03
2023-05-22T20:07:10.312Z,2.50
2023-05-22T20:12:12.089Z,2.50
2023-05-22T20:17:13.622Z,3.00
2023-05-22T20:22:15.314Z,2.50
2023-05-22T20:27:16.842Z,2.70
2023-05-22T20:32:18.330Z,2.78
2023-05-22T20:37:20.931Z,2.38
2023-05-22T20:42:22.849Z,3.15
2023-05-22T20:47:24.319Z,2.90
2023-05-22T20:52:30.282Z,3.00
2023-05-22T20:57:31.792Z,2.55
2023-05-22T21:02:33.279Z,3.00
2023-05-22T21:07:34.776Z,3.05
2023-05-22T21:12:36.255Z,2.92
2023-05-22T21:17:37.805Z,2.90
2023-05-22T21:22:39.342Z,2.00
2023-05-22T21:27:40.901Z,2.85
2023-05-22T21:32:42.680Z,2.50
2023-05-22T21:37:44.282Z,3.53
2023-05-22T21:42:47.317Z,3.50
2023-05-22T21:47:49.119Z,2.95
2023-05-22T21:52:50.674Z,2.95
2023-05-22T21:57:52.135Z,3.17
2023-05-22T22:02:55.089Z,3.55
2023-05-22T22:07:56.912Z,2.85
2023-05-22T22:12:58.397Z,3.70
2023-05-22T22:18:02.235Z,3.35
2023-05-22T22:23:03.989Z,2.47
2023-05-22T22:28:05.481Z,2.97
2023-05-22T22:33:07.027Z,2.60
2023-05-22T22:38:08.538Z,2.22
2023-05-22T22:43:10.286Z,3.13
2023-05-22T22:48:11.787Z,3.38
2023-05-22T22:53:13.266Z,3.30
2023-05-22T22:58:14.776Z,2.45
2023-05-22T23:03:16.281Z,3.20
2023-05-22T23:08:17.762Z,2.50
2023-05-22T23:13:19.265Z,2.67
2023-05-22T23:18:22.246Z,2.50
2023-05-22T23:23:23.788Z,2.72
2023-05-22T23:28:25.315Z,2.60
2023-05-22T23:33:26.701Z,3.50
2023-05-22T23:38:28.189Z,2.85
2023-05-22T23:43:29.681Z,3.53
2023-05-22T23:48:31.290Z,2.88
2023-05-22T23:53:32.801Z,2.75
2023-05-22T23:58:34.343Z,3.78
